Time;durP1;ratioP1;P1;durP2;ratioP2;P2;SDS_P1;SDS_P2;PMS_P1;PMS_P2;Temp;Humidity;BMP_temperature;BMP_pressure;BME280_temperature;BME280_humidity;BME280_pressure;Samples;Min_cycle;Max_cycle;Signal;HPM_P1;HPM_P2
2021/01/11 00:00:33;;;;;;;12.87;9.00;;;;;;;;;;10444918;28;20604;-78
2021/01/11 00:05:36;;;;;;;14.23;8.90;;;;;;;;;;10452174;28;20286;-79
2021/01/11 00:10:38;;;;;;;13.03;9.20;;;;;;;;;;10451047;28;20247;-79
2021/01/11 00:15:45;;;;;;;12.60;8.83;;;;;;;;;;10443469;28;20222;-79
2021/01/11 00:20:47;;;;;;;13.67;9.50;;;;;;;;;;10451581;28;20210;-79
2021/01/11 00:25:49;;;;;;;14.03;9.00;;;;;;;;;;10452958;28;20206;-79
2021/01/11 00:30:53;;;;;;;13.67;9.67;;;;;;;;;;10451288;28;20349;-79
2021/01/11 00:35:55;;;;;;;15.00;10.20;;;;;;;;;;10447328;28;20576;-80
2021/01/11 00:40:56;;;;;;;15.80;10.33;;;;;;;;;;10446948;28;20218;-79
2021/01/11 00:45:59;;;;;;;15.90;11.33;;;;;;;;;;10443262;28;20211;-79
2021/01/11 00:51:01;;;;;;;16.53;11.00;;;;;;;;;;10454353;28;20727;-79
2021/01/11 00:56:02;;;;;;;18.87;11.83;;;;;;;;;;10451420;28;20219;-80
2021/01/11 01:06:20;;;;;;;18.27;12.30;;;;;;;;;;10374305;28;20255;-90
2021/01/11 01:11:22;;;;;;;17.50;12.20;;;;;;;;;;10381025;28;20305;-90
2021/01/11 01:16:28;;;;;;;20.13;13.07;;;;;;;;;;10380112;28;20227;-91
2021/01/11 01:21:31;;;;;;;18.27;12.33;;;;;;;;;;10383903;28;20219;-91
2021/01/11 01:26:33;;;;;;;20.33;13.07;;;;;;;;;;10384294;28;20600;-91
2021/01/11 01:31:36;;;;;;;19.73;12.97;;;;;;;;;;10380959;28;20653;-92
2021/01/11 01:36:39;;;;;;;23.63;14.30;;;;;;;;;;10380058;28;20236;-90
2021/01/11 01:41:41;;;;;;;21.67;14.33;;;;;;;;;;10390412;28;20323;-92
2021/01/11 01:46:43;;;;;;;24.50;15.10;;;;;;;;;;10390755;28;20214;-93
2021/01/11 01:51:46;;;;;;;24.07;15.43;;;;;;;;;;10388627;28;20212;-91
2021/01/11 01:56:49;;;;;;;22.20;14.63;;;;;;;;;;10392955;28;20240;-90
2021/01/11 02:01:52;;;;;;;24.77;15.77;;;;;;;;;;10388820;28;20223;-92
2021/01/11 02:06:57;;;;;;;24.00;15.03;;;;;;;;;;10433396;28;20258;-92
2021/01/11 02:12:02;;;;;;;23.97;15.73;;;;;;;;;;10427591;28;20215;-90
2021/01/11 02:17:06;;;;;;;24.60;16.40;;;;;;;;;;10425859;28;20227;-92
2021/01/11 02:22:11;;;;;;;23.37;15.43;;;;;;;;;;10428452;28;20222;-92
2021/01/11 02:27:20;;;;;;;24.47;14.80;;;;;;;;;;10423907;28;20693;-91
2021/01/11 02:32:24;;;;;;;25.00;16.00;;;;;;;;;;10428470;28;20207;-92
2021/01/11 02:37:26;;;;;;;25.77;15.40;;;;;;;;;;10432689;28;20242;-91
2021/01/11 02:42:28;;;;;;;24.90;16.07;;;;;;;;;;10425715;28;20221;-91
2021/01/11 02:47:36;;;;;;;24.27;15.90;;;;;;;;;;10431214;28;20262;-91
2021/01/11 02:52:50;;;;;;;26.83;16.53;;;;;;;;;;10425816;28;20201;-91
2021/01/11 02:57:56;;;;;;;26.87;16.63;;;;;;;;;;10428886;28;20235;-90
2021/01/11 03:02:59;;;;;;;28.00;16.63;;;;;;;;;;10422708;28;20235;-91
2021/01/11 03:08:01;;;;;;;27.10;16.87;;;;;;;;;;10426030;28;20207;-91
2021/01/11 03:13:04;;;;;;;28.20;17.67;;;;;;;;;;10427343;28;20330;-91
2021/01/11 03:18:07;;;;;;;27.57;17.67;;;;;;;;;;10426377;28;20798;-91
2021/01/11 03:23:09;;;;;;;29.57;18.60;;;;;;;;;;10426757;28;20222;-91
2021/01/11 03:28:17;;;;;;;30.87;18.70;;;;;;;;;;10426555;28;21847;-89
2021/01/11 03:33:20;;;;;;;34.60;19.80;;;;;;;;;;10420549;28;20746;-90
2021/01/11 03:38:24;;;;;;;38.93;20.77;;;;;;;;;;10427639;28;20223;-91
2021/01/11 03:43:25;;;;;;;36.80;21.47;;;;;;;;;;10428520;28;20206;-90
2021/01/11 03:48:35;;;;;;;37.20;21.83;;;;;;;;;;10425974;28;20215;-91
2021/01/11 03:53:37;;;;;;;37.57;21.93;;;;;;;;;;10428083;28;20221;-92
2021/01/11 03:58:39;;;;;;;38.80;21.70;;;;;;;;;;10423085;28;20231;-91
2021/01/11 04:03:55;;;;;;;38.77;22.77;;;;;;;;;;10422204;28;20738;-90
2021/01/11 04:08:59;;;;;;;41.67;22.67;;;;;;;;;;10421472;28;20207;-91
2021/01/11 04:14:01;;;;;;;41.70;23.07;;;;;;;;;;10426214;28;20214;-90
2021/01/11 04:19:03;;;;;;;43.80;23.93;;;;;;;;;;10419665;28;20235;-91
2021/01/11 04:24:07;;;;;;;42.17;23.13;;;;;;;;;;10428372;28;20291;-91
2021/01/11 04:29:09;;;;;;;41.83;23.20;;;;;;;;;;10425252;28;20218;-91
2021/01/11 04:34:11;;;;;;;45.07;24.30;;;;;;;;;;10424112;28;20665;-92
2021/01/11 04:39:33;;;;;;;49.47;25.17;;;;;;;;;;10417728;28;20727;-90
2021/01/11 04:44:36;;;;;;;46.03;24.37;;;;;;;;;;10424445;28;20669;-91
2021/01/11 04:49:39;;;;;;;50.47;24.77;;;;;;;;;;10419788;28;22910;-90
2021/01/11 04:54:42;;;;;;;48.60;24.20;;;;;;;;;;10420665;28;20216;-90
2021/01/11 04:59:51;;;;;;;46.87;23.97;;;;;;;;;;10422667;28;20775;-92
2021/01/11 05:04:53;;;;;;;43.23;22.83;;;;;;;;;;10419281;28;20243;-91
2021/01/11 05:09:55;;;;;;;44.80;24.53;;;;;;;;;;10427499;28;20212;-92
2021/01/11 05:15:16;;;;;;;41.70;22.17;;;;;;;;;;10422236;28;20209;-92
2021/01/11 05:20:38;;;;;;;43.63;22.37;;;;;;;;;;10426657;28;20330;-92
2021/01/11 05:25:40;;;;;;;42.03;22.40;;;;;;;;;;10422691;28;20775;-91
2021/01/11 05:30:43;;;;;;;40.27;21.80;;;;;;;;;;10426366;28;20299;-91
2021/01/11 05:35:46;;;;;;;39.83;20.77;;;;;;;;;;10426711;28;20215;-91
2021/01/11 05:40:53;;;;;;;35.60;19.90;;;;;;;;;;10429699;28;20699;-91
2021/01/11 05:45:55;;;;;;;33.20;18.60;;;;;;;;;;10423776;28;20211;-91
2021/01/11 05:51:02;;;;;;;31.80;17.23;;;;;;;;;;10426748;28;20684;-91
2021/01/11 05:56:14;;;;;;;33.90;17.53;;;;;;;;;;10417335;28;20222;-92
2021/01/11 06:01:20;;;;;;;29.63;16.87;;;;;;;;;;10419329;28;20227;-91
2021/01/11 06:06:22;;;;;;;27.27;16.07;;;;;;;;;;10422607;28;20329;-91
2021/01/11 06:11:25;;;;;;;29.90;17.40;;;;;;;;;;10421887;28;20211;-90
2021/01/11 06:16:30;;;;;;;31.47;18.10;;;;;;;;;;10420825;28;20593;-90
2021/01/11 06:21:32;;;;;;;30.47;17.47;;;;;;;;;;10419183;28;20247;-93
2021/01/11 06:26:35;;;;;;;29.33;17.03;;;;;;;;;;10411569;28;20811;-91
2021/01/11 06:31:37;;;;;;;31.07;17.27;;;;;;;;;;10424825;28;20768;-91
2021/01/11 06:36:40;;;;;;;29.00;16.93;;;;;;;;;;10428546;28;20222;-92
2021/01/11 06:41:42;;;;;;;27.40;16.27;;;;;;;;;;10420184;28;20319;-89
2021/01/11 06:46:45;;;;;;;27.07;15.87;;;;;;;;;;10416609;28;20579;-88
2021/01/11 06:51:51;;;;;;;28.07;15.87;;;;;;;;;;10418219;28;20572;-88
2021/01/11 06:56:54;;;;;;;23.27;14.23;;;;;;;;;;10410750;28;20208;-88
2021/01/11 07:01:56;;;;;;;26.83;14.03;;;;;;;;;;10409595;28;20251;-86
2021/01/11 07:07:01;;;;;;;23.37;14.00;;;;;;;;;;10411388;28;20293;-88
2021/01/11 07:12:04;;;;;;;20.50;12.50;;;;;;;;;;10411444;28;20207;-86
2021/01/11 07:17:07;;;;;;;21.07;11.90;;;;;;;;;;10411037;28;20223;-87
2021/01/11 07:22:10;;;;;;;18.73;11.47;;;;;;;;;;10417218;28;20226;-83
2021/01/11 07:38:22;;;;;;;22.80;10.97;;;;;;;;;;10431886;28;20231;-92
2021/01/11 07:43:51;;;;;;;17.40;11.33;;;;;;;;;;10422405;28;20220;-94
2021/01/11 07:49:20;;;;;;;17.33;10.80;;;;;;;;;;10433197;28;20235;-94
2021/01/11 07:54:26;;;;;;;17.57;11.43;;;;;;;;;;10429479;28;20223;-92
2021/01/11 07:59:28;;;;;;;18.27;11.20;;;;;;;;;;10424187;28;20242;-89
2021/01/11 08:04:58;;;;;;;23.40;12.00;;;;;;;;;;10432154;28;20779;-93
2021/01/11 08:10:02;;;;;;;18.23;12.40;;;;;;;;;;10434446;28;20211;-95
2021/01/11 08:15:07;;;;;;;17.50;11.63;;;;;;;;;;10412363;28;20858;-86
2021/01/11 08:20:22;;;;;;;20.23;13.03;;;;;;;;;;10412299;28;20227;-89
2021/01/11 08:25:25;;;;;;;19.50;12.27;;;;;;;;;;10405596;28;20224;-87
2021/01/11 08:30:27;;;;;;;19.53;12.27;;;;;;;;;;10408184;28;20334;-89
2021/01/11 08:35:29;;;;;;;19.27;12.23;;;;;;;;;;10407388;28;20376;-88
2021/01/11 08:40:33;;;;;;;23.30;12.67;;;;;;;;;;10405260;28;20239;-88
2021/01/11 08:45:36;;;;;;;20.83;11.47;;;;;;;;;;10405495;28;20210;-88
2021/01/11 08:50:38;;;;;;;16.57;11.37;;;;;;;;;;10409670;28;20226;-88
2021/01/11 08:55:52;;;;;;;18.63;11.53;;;;;;;;;;10410904;28;21630;-87
2021/01/11 09:01:10;;;;;;;18.13;10.80;;;;;;;;;;10424553;28;20236;-93
2021/01/11 09:06:13;;;;;;;16.50;10.10;;;;;;;;;;10424079;28;20270;-93
2021/01/11 09:11:15;;;;;;;16.07;10.27;;;;;;;;;;10426489;28;20208;-92
2021/01/11 09:21:39;;;;;;;15.93;9.53;;;;;;;;;;10419052;28;20715;-90
2021/01/11 09:26:44;;;;;;;16.50;9.50;;;;;;;;;;10420850;28;20214;-86
2021/01/11 09:31:46;;;;;;;16.73;8.97;;;;;;;;;;10411981;28;20235;-86
2021/01/11 09:36:51;;;;;;;13.43;8.87;;;;;;;;;;10419288;28;20208;-87
2021/01/11 09:41:55;;;;;;;14.73;9.07;;;;;;;;;;10415309;28;20321;-90
2021/01/11 09:47:00;;;;;;;14.70;8.30;;;;;;;;;;10403104;28;20222;-89
2021/01/11 09:52:28;;;;;;;13.40;8.10;;;;;;;;;;10421517;28;20662;-90
2021/01/11 09:57:36;;;;;;;12.17;7.43;;;;;;;;;;10430393;28;20295;-89
2021/01/11 10:02:39;;;;;;;11.43;6.53;;;;;;;;;;10422631;28;20232;-90
2021/01/11 10:07:42;;;;;;;9.47;6.50;;;;;;;;;;10422617;28;20212;-90
2021/01/11 10:12:45;;;;;;;9.87;6.30;;;;;;;;;;10435616;28;20721;-91
2021/01/11 10:17:47;;;;;;;9.97;5.90;;;;;;;;;;10425639;28;20277;-92
2021/01/11 10:22:49;;;;;;;8.57;5.60;;;;;;;;;;10433988;28;20222;-94
2021/01/11 10:27:54;;;;;;;10.90;6.27;;;;;;;;;;10412488;28;20258;-93
2021/01/11 10:32:58;;;;;;;9.93;6.27;;;;;;;;;;10417202;28;20208;-88
2021/01/11 10:38:03;;;;;;;11.50;6.20;;;;;;;;;;10429937;28;20772;-91
2021/01/11 10:43:06;;;;;;;8.33;5.80;;;;;;;;;;10422886;28;20214;-91
2021/01/11 10:48:12;;;;;;;10.03;5.73;;;;;;;;;;10422309;28;20588;-91
2021/01/11 10:53:14;;;;;;;8.93;5.90;;;;;;;;;;10423861;28;20694;-87
2021/01/11 10:58:17;;;;;;;9.23;5.90;;;;;;;;;;10416234;28;20235;-85
2021/01/11 11:03:18;;;;;;;9.67;5.87;;;;;;;;;;10404085;28;20247;-87
2021/01/11 11:08:24;;;;;;;9.17;5.53;;;;;;;;;;10418708;28;20830;-86
2021/01/11 11:19:03;;;;;;;9.97;5.47;;;;;;;;;;10416242;28;20693;-88
2021/01/11 11:24:05;;;;;;;8.30;5.70;;;;;;;;;;10421304;28;20215;-89
2021/01/11 11:29:11;;;;;;;9.37;5.90;;;;;;;;;;10421089;28;20219;-90
2021/01/11 11:34:13;;;;;;;11.23;6.03;;;;;;;;;;10420234;28;20212;-91
2021/01/11 11:39:45;;;;;;;8.63;5.73;;;;;;;;;;10417328;28;20231;-89
2021/01/11 11:44:49;;;;;;;9.40;6.27;;;;;;;;;;10417909;28;20211;-85
2021/01/11 11:49:51;;;;;;;11.27;6.07;;;;;;;;;;10415467;28;20215;-84
2021/01/11 11:54:53;;;;;;;11.77;6.10;;;;;;;;;;10420509;28;20208;-86
2021/01/11 12:00:02;;;;;;;9.63;6.30;;;;;;;;;;10426343;28;20239;-92
2021/01/11 12:05:06;;;;;;;9.60;5.97;;;;;;;;;;10417524;28;20669;-88
2021/01/11 12:10:09;;;;;;;10.30;6.00;;;;;;;;;;10419864;28;20227;-87
2021/01/11 12:15:13;;;;;;;9.45;6.20;;;;;;;;;;10416148;28;20476;-90
2021/01/11 12:20:15;;;;;;;9.57;6.00;;;;;;;;;;10424229;28;20246;-89
2021/01/11 12:25:19;;;;;;;11.00;6.33;;;;;;;;;;10421003;28;20849;-88
2021/01/11 12:30:22;;;;;;;13.50;6.57;;;;;;;;;;10399168;28;20402;-89
2021/01/11 12:35:24;;;;;;;11.37;6.53;;;;;;;;;;10414085;28;20215;-89
2021/01/11 12:40:34;;;;;;;11.47;7.00;;;;;;;;;;10420856;28;20236;-90
2021/01/11 12:45:37;;;;;;;10.17;6.53;;;;;;;;;;10416242;28;20211;-89
2021/01/11 12:50:39;;;;;;;13.97;7.17;;;;;;;;;;10422633;28;20306;-90
2021/01/11 12:55:44;;;;;;;11.20;6.87;;;;;;;;;;10421580;28;20222;-87
2021/01/11 13:00:47;;;;;;;12.03;6.87;;;;;;;;;;10411898;28;20254;-89
2021/01/11 13:05:49;;;;;;;12.10;6.80;;;;;;;;;;10418252;28;20243;-89
2021/01/11 13:10:52;;;;;;;11.50;6.60;;;;;;;;;;10413672;28;20216;-89
2021/01/11 13:15:55;;;;;;;12.63;7.23;;;;;;;;;;10412382;28;20756;-88
2021/01/11 13:20:58;;;;;;;11.87;7.40;;;;;;;;;;10427289;28;20261;-88
2021/01/11 13:26:00;;;;;;;14.90;7.70;;;;;;;;;;10394806;28;20289;-87
2021/01/11 13:31:10;;;;;;;11.50;7.23;;;;;;;;;;10405329;28;20212;-89
2021/01/11 13:36:19;;;;;;;13.07;7.47;;;;;;;;;;10409107;28;20678;-87
2021/01/11 13:41:21;;;;;;;12.87;7.67;;;;;;;;;;10405588;28;20238;-88
2021/01/11 13:46:27;;;;;;;11.20;7.23;;;;;;;;;;10405886;28;20686;-87
2021/01/11 13:51:29;;;;;;;10.30;6.87;;;;;;;;;;10420279;28;20207;-89
2021/01/11 13:56:32;;;;;;;11.47;6.80;;;;;;;;;;10412320;28;20204;-87
2021/01/11 14:01:39;;;;;;;10.73;7.03;;;;;;;;;;10406179;28;20249;-89
2021/01/11 14:06:41;;;;;;;12.77;6.97;;;;;;;;;;10411164;28;20228;-88
2021/01/11 14:11:47;;;;;;;11.07;7.20;;;;;;;;;;10418240;28;20222;-88
2021/01/11 14:16:49;;;;;;;11.27;6.50;;;;;;;;;;10423465;28;20204;-88
2021/01/11 14:21:51;;;;;;;10.93;7.17;;;;;;;;;;10414913;28;21013;-88
2021/01/11 14:27:01;;;;;;;16.47;6.73;;;;;;;;;;10407104;28;20243;-89
2021/01/11 14:32:04;;;;;;;9.43;6.33;;;;;;;;;;10401376;28;20610;-88
2021/01/11 14:37:06;;;;;;;10.93;6.80;;;;;;;;;;10409881;28;20210;-89
2021/01/11 14:42:09;;;;;;;11.40;6.37;;;;;;;;;;10424534;28;20724;-88
2021/01/11 14:47:12;;;;;;;12.93;7.10;;;;;;;;;;10417161;28;20215;-91
2021/01/11 14:52:16;;;;;;;11.13;6.50;;;;;;;;;;10426183;28;20305;-87
2021/01/11 14:57:18;;;;;;;10.50;6.87;;;;;;;;;;10435298;28;20218;-91
2021/01/11 15:02:21;;;;;;;12.77;7.73;;;;;;;;;;10450871;28;20282;-91
2021/01/11 15:07:52;;;;;;;28.40;15.30;;;;;;;;;;10443477;28;20239;-95
2021/01/11 15:13:00;;;;;;;23.20;13.43;;;;;;;;;;10449705;28;20211;-94
2021/01/11 15:18:03;;;;;;;21.00;13.73;;;;;;;;;;10445035;28;20658;-93
2021/01/11 15:23:05;;;;;;;16.47;10.27;;;;;;;;;;10447998;28;20298;-93
2021/01/11 15:28:07;;;;;;;18.37;10.73;;;;;;;;;;10437736;28;20302;-94
2021/01/11 15:33:13;;;;;;;14.87;8.70;;;;;;;;;;10434553;28;20295;-95
2021/01/11 15:38:16;;;;;;;18.53;8.73;;;;;;;;;;10431754;28;20643;-91
2021/01/11 15:43:18;;;;;;;15.50;8.53;;;;;;;;;;10425495;28;20218;-90
2021/01/11 15:48:26;;;;;;;14.37;7.83;;;;;;;;;;10432029;28;20246;-92
2021/01/11 15:53:28;;;;;;;14.73;7.40;;;;;;;;;;10437528;28;20666;-90
2021/01/11 15:58:36;;;;;;;12.83;6.63;;;;;;;;;;10427762;28;20337;-92
2021/01/11 16:03:41;;;;;;;11.80;5.47;;;;;;;;;;10426347;28;20247;-90
2021/01/11 16:08:44;;;;;;;11.17;5.73;;;;;;;;;;10433420;28;20225;-90
2021/01/11 16:13:48;;;;;;;9.33;5.33;;;;;;;;;;10427192;28;20751;-92
2021/01/11 16:18:56;;;;;;;11.00;4.63;;;;;;;;;;10425262;28;20318;-89
2021/01/11 16:23:58;;;;;;;10.10;3.83;;;;;;;;;;10421816;28;20661;-89
2021/01/11 16:29:06;;;;;;;10.77;3.70;;;;;;;;;;10429909;28;20216;-91
2021/01/11 16:34:10;;;;;;;7.43;3.67;;;;;;;;;;10418888;28;20216;-91
2021/01/11 16:39:12;;;;;;;8.20;3.40;;;;;;;;;;10427193;28;20315;-90
2021/01/11 16:44:14;;;;;;;8.83;3.60;;;;;;;;;;10416880;28;20210;-90
2021/01/11 16:49:18;;;;;;;9.17;3.13;;;;;;;;;;10419755;28;20215;-90
2021/01/11 16:54:20;;;;;;;8.70;3.07;;;;;;;;;;10424286;28;20651;-90
2021/01/11 16:59:23;;;;;;;7.97;2.80;;;;;;;;;;10420396;28;20612;-88
2021/01/11 17:04:26;;;;;;;6.10;2.73;;;;;;;;;;10401574;28;20254;-89
2021/01/11 17:09:28;;;;;;;8.17;3.30;;;;;;;;;;10387979;28;20655;-91
2021/01/11 17:14:30;;;;;;;9.70;3.10;;;;;;;;;;10382850;28;20586;-90
2021/01/11 17:19:34;;;;;;;6.57;2.70;;;;;;;;;;10381351;28;20775;-90
2021/01/11 17:24:36;;;;;;;9.10;2.90;;;;;;;;;;10379224;28;20564;-87
2021/01/11 17:29:38;;;;;;;5.47;2.23;;;;;;;;;;10377736;28;20208;-90
2021/01/11 17:34:42;;;;;;;6.47;2.40;;;;;;;;;;10375210;28;20220;-88
2021/01/11 17:39:45;;;;;;;7.77;2.40;;;;;;;;;;10377328;28;20263;-88
2021/01/11 17:44:47;;;;;;;8.77;2.53;;;;;;;;;;10369378;28;20219;-89
2021/01/11 17:49:50;;;;;;;6.27;2.40;;;;;;;;;;10371527;28;20216;-86
2021/01/11 17:54:52;;;;;;;5.43;2.33;;;;;;;;;;10372268;28;20205;-89
2021/01/11 17:59:55;;;;;;;6.60;2.83;;;;;;;;;;10374909;28;20240;-88
2021/01/11 18:04:58;;;;;;;9.33;3.40;;;;;;;;;;10398484;28;20235;-89
2021/01/11 18:10:00;;;;;;;8.47;3.47;;;;;;;;;;10406395;28;20749;-87
2021/01/11 18:15:03;;;;;;;8.57;3.93;;;;;;;;;;10403007;28;20215;-87
2021/01/11 18:20:11;;;;;;;10.63;4.50;;;;;;;;;;10409948;28;20235;-87
2021/01/11 18:25:14;;;;;;;9.37;4.27;;;;;;;;;;10413214;28;20218;-87
2021/01/11 18:30:16;;;;;;;10.73;4.20;;;;;;;;;;10421062;28;20212;-88
2021/01/11 18:35:19;;;;;;;9.67;4.10;;;;;;;;;;10429229;28;20312;-88
2021/01/11 18:40:21;;;;;;;10.57;4.00;;;;;;;;;;10433846;28;20322;-89
2021/01/11 18:45:24;;;;;;;10.13;3.43;;;;;;;;;;10428641;28;20303;-89
2021/01/11 18:50:29;;;;;;;8.07;3.27;;;;;;;;;;10429974;28;20218;-92
2021/01/11 18:55:31;;;;;;;10.73;3.57;;;;;;;;;;10431344;28;20211;-90
2021/01/11 19:00:43;;;;;;;8.83;3.40;;;;;;;;;;10422613;28;20232;-89
2021/01/11 19:05:50;;;;;;;9.80;3.20;;;;;;;;;;10430074;28;20255;-91
2021/01/11 19:10:57;;;;;;;6.37;2.40;;;;;;;;;;10423867;28;21017;-91
2021/01/11 19:15:59;;;;;;;7.57;2.73;;;;;;;;;;10428469;28;20207;-90
2021/01/11 19:21:07;;;;;;;8.10;2.50;;;;;;;;;;10428711;28;20331;-91
2021/01/11 19:26:09;;;;;;;7.87;2.80;;;;;;;;;;10432475;28;20204;-94
2021/01/11 20:58:35;;;;;;;8.10;2.50;;;;;;;;;;10451991;28;20239;-92
2021/01/11 21:03:37;;;;;;;7.10;2.50;;;;;;;;;;10451028;28;20228;-93
2021/01/11 21:08:40;;;;;;;8.53;2.60;;;;;;;;;;10428374;28;20809;-92
2021/01/11 21:13:43;;;;;;;7.43;2.70;;;;;;;;;;10433114;28;20470;-93
2021/01/11 21:18:46;;;;;;;10.40;2.73;;;;;;;;;;10442274;28;20219;-91
2021/01/11 21:23:48;;;;;;;12.23;3.07;;;;;;;;;;10425554;28;20213;-90
2021/01/11 21:28:51;;;;;;;12.97;2.70;;;;;;;;;;10430463;28;20212;-92
2021/01/11 21:33:56;;;;;;;8.87;2.70;;;;;;;;;;10430050;28;20216;-90
2021/01/11 21:38:58;;;;;;;10.80;3.10;;;;;;;;;;10425781;28;20704;-89
2021/01/11 21:44:03;;;;;;;11.83;2.90;;;;;;;;;;10428126;28;20617;-91
2021/01/11 21:49:08;;;;;;;10.13;2.43;;;;;;;;;;10435350;28;20231;-91
2021/01/11 21:54:11;;;;;;;8.87;2.70;;;;;;;;;;10424770;28;20318;-91
2021/01/11 21:59:14;;;;;;;11.00;2.83;;;;;;;;;;10429318;28;20740;-90
2021/01/11 22:04:18;;;;;;;10.90;3.10;;;;;;;;;;10433797;28;20231;-91
2021/01/11 22:09:21;;;;;;;9.57;2.63;;;;;;;;;;10431792;28;20299;-90
2021/01/11 22:14:24;;;;;;;10.60;3.00;;;;;;;;;;10432920;28;20224;-91
2021/01/11 22:19:26;;;;;;;13.93;3.23;;;;;;;;;;10432249;28;20239;-94
2021/01/11 22:24:28;;;;;;;13.00;2.90;;;;;;;;;;10434446;28;20893;-91
2021/01/11 22:29:31;;;;;;;9.33;2.63;;;;;;;;;;10420152;28;20219;-91
2021/01/11 22:34:40;;;;;;;11.43;2.60;;;;;;;;;;10432433;28;20411;-92
2021/01/11 22:39:44;;;;;;;12.53;2.63;;;;;;;;;;10422557;28;20330;-90
2021/01/11 22:44:48;;;;;;;12.40;2.83;;;;;;;;;;10431297;28;20231;-91
2021/01/11 22:49:52;;;;;;;10.67;2.80;;;;;;;;;;10435720;28;20211;-91
2021/01/11 22:54:54;;;;;;;15.63;3.00;;;;;;;;;;10429881;28;20220;-93
2021/01/11 22:59:58;;;;;;;8.80;2.50;;;;;;;;;;10423185;28;20327;-92
2021/01/11 23:05:00;;;;;;;10.37;2.97;;;;;;;;;;10430084;28;20740;-92
2021/01/11 23:10:05;;;;;;;10.63;2.60;;;;;;;;;;10440314;28;20271;-91
2021/01/11 23:15:11;;;;;;;13.77;2.50;;;;;;;;;;10420900;28;20219;-94
2021/01/11 23:20:14;;;;;;;13.27;3.20;;;;;;;;;;10429716;28;20238;-93
2021/01/11 23:25:18;;;;;;;9.37;2.70;;;;;;;;;;10435923;28;20218;-91
2021/01/11 23:30:21;;;;;;;9.67;2.80;;;;;;;;;;10420729;28;20303;-92
2021/01/11 23:35:25;;;;;;;10.00;2.60;;;;;;;;;;10430809;28;20215;-94
2021/01/11 23:40:27;;;;;;;10.87;2.70;;;;;;;;;;10429920;28;20241;-93
2021/01/11 23:45:30;;;;;;;9.40;3.00;;;;;;;;;;10431250;28;20298;-90
2021/01/11 23:50:32;;;;;;;7.57;2.60;;;;;;;;;;10425306;28;20754;-92
2021/01/11 23:55:34;;;;;;;10.97;2.67;;;;;;;;;;10429149;28;20212;-90
